Deepwater Millennium — V7HD2 — position and weather

sailwx.info

Track history (hours):
 
Tides and Currents Weather Stations Pressure Air Temp Water Temp Dewpoint Dewpoint Depression Visibility Wind Speed Wind Dir Waves Ship Positions

Deepwater Millennium

Last reported at 2015-Nov-17 00:07 UTC. Time now 2016-Feb-10 12:53 UTC.
Position N 01°14' E 103°36'.
Warning: this ship's position is months out of date.

Type: Other ship. MMSI: 538002214.

Date/timePositionNaut miles runAvg speedWind from/ knotsBaromVisibWave heightAir tempDewpointWater temp
2015-Nov-17 00:07N 01°14' E 103°36'1 1.5
2015-Nov-16 23:31N 01°13' E 103°36'5 4.8
2015-Nov-16 22:23N 01°10' E 103°41'6 7.3
2015-Nov-16 21:33N 01°10' E 103°47'1010.4
2015-Nov-16 20:33N 01°14' E 103°56'10 9.9
2015-Nov-16 19:32N 01°16' E 104°06'11 7.7
2015-Nov-16 18:07N 01°18' E 104°17'  
2015-Nov-10 11:33N 20°38' E 121°02'10 9.8
2015-Nov-10 10:33N 20°46' E 121°09'10 9.6
2015-Nov-10 09:33N 20°53' E 121°16'  
Track history (hours):
 
Tides and Currents Weather Stations Pressure Air Temp Water Temp Dewpoint Dewpoint Depression Visibility Wind Speed Wind Dir Waves Ship Positions

Deepwater Millennium

Last reported at 2015-Nov-17 00:07 UTC. Time now 2016-Feb-10 12:53 UTC.
Position N 01°14' E 103°36'.
Warning: this ship's position is months out of date.

Type: Other ship. MMSI: 538002214.

Date/timePositionNaut miles runAvg speedWind from/ knotsBaromVisibWave heightAir tempDewpointWater temp
2015-Nov-17 00:07N 01°14' E 103°36'1 1.5
2015-Nov-16 23:31N 01°13' E 103°36'5 4.8
2015-Nov-16 22:23N 01°10' E 103°41'6 7.3
2015-Nov-16 21:33N 01°10' E 103°47'1010.4
2015-Nov-16 20:33N 01°14' E 103°56'10 9.9
2015-Nov-16 19:32N 01°16' E 104°06'11 7.7
2015-Nov-16 18:07N 01°18' E 104°17'  
2015-Nov-10 11:33N 20°38' E 121°02'10 9.8
2015-Nov-10 10:33N 20°46' E 121°09'10 9.6
2015-Nov-10 09:33N 20°53' E 121°16'  

Dump ship's entire track history